SWA1964 MYNN-KMCO
Flight info
| Callsign | SWA1964 |
|---|---|
| Flight time | 1h 8m |
| Altitude | 32000 |
| Route | PEACH DCT CCLUB RIDES2 |
| Aircraft | B38M/M-SDE1FGHILORVWXY/HB1 |
Departure
| Time | 2026-04-25 22:26 |
|---|---|
| Airport | Lynden Pindling International Airport (MYNN) |
Arrival
| Time | 2026-04-25 23:34 |
|---|---|
| Airport | Orlando International Airport (KMCO) |
| Time | Latitude | Longitude | Altitude | Speed | Heading |
|---|---|---|---|---|---|
| 2026-04-25 22:13 | 25.05038 | -77.46884 | 26 ft | 0 kts | 353° |
| 2026-04-25 22:15 | 25.04988 | -77.46900 | 26 ft | 0 kts | 80° |
| 2026-04-25 22:15 | 25.05002 | -77.46990 | 28 ft | 0 kts | 132° |
| 2026-04-25 22:19 | 25.04996 | -77.46983 | 28 ft | 3 kts | 133° |
| 2026-04-25 22:20 | 25.04979 | -77.46963 | 27 ft | 3 kts | 133° |
| 2026-04-25 22:20 | 25.04963 | -77.46944 | 27 ft | 3 kts | 134° |
| 2026-04-25 22:20 | 25.04937 | -77.46929 | 27 ft | 5 kts | 169° |
| 2026-04-25 22:20 | 25.04901 | -77.46938 | 27 ft | 4 kts | 220° |
| 2026-04-25 22:21 | 25.04888 | -77.46952 | 27 ft | 1 kts | 214° |
| 2026-04-25 22:21 | 25.04877 | -77.46956 | 27 ft | 2 kts | 178° |
| 2026-04-25 22:21 | 25.04853 | -77.46942 | 27 ft | 5 kts | 148° |
| 2026-04-25 22:21 | 25.04813 | -77.46939 | 27 ft | 6 kts | 229° |
| 2026-04-25 22:22 | 25.04796 | -77.46991 | 28 ft | 6 kts | 253° |
| 2026-04-25 22:22 | 25.04787 | -77.47024 | 28 ft | 4 kts | 253° |
| 2026-04-25 22:22 | 25.04771 | -77.47084 | 28 ft | 13 kts | 254° |
| 2026-04-25 22:22 | 25.04701 | -77.47200 | 28 ft | 23 kts | 224° |
| 2026-04-25 22:23 | 25.04561 | -77.47350 | 28 ft | 32 kts | 224° |
| 2026-04-25 22:23 | 25.04378 | -77.47552 | 26 ft | 42 kts | 224° |
| 2026-04-25 22:23 | 25.04207 | -77.47734 | 25 ft | 47 kts | 224° |
| 2026-04-25 22:23 | 25.03977 | -77.47985 | 25 ft | 39 kts | 225° |
| 2026-04-25 22:24 | 25.03819 | -77.48156 | 25 ft | 19 kts | 221° |
| 2026-04-25 22:24 | 25.03719 | -77.48179 | 25 ft | 12 kts | 185° |
| 2026-04-25 22:24 | 25.03646 | -77.48182 | 25 ft | 8 kts | 181° |
| 2026-04-25 22:24 | 25.03600 | -77.48183 | 25 ft | 4 kts | 180° |
| 2026-04-25 22:25 | 25.03591 | -77.48179 | 25 ft | 1 kts | 104° |
| 2026-04-25 22:25 | 25.03591 | -77.48171 | 25 ft | 0 kts | 88° |
| 2026-04-25 22:25 | 25.03592 | -77.48166 | 25 ft | 2 kts | 88° |
| 2026-04-25 22:26 | 25.03594 | -77.47957 | 25 ft | 65 kts | 89° |
| 2026-04-25 22:26 | 25.03596 | -77.47202 | 25 ft | 130 kts | 89° |
| 2026-04-25 22:26 | 25.03594 | -77.45993 | 66 ft | 176 kts | 89° |
| 2026-04-25 22:26 | 25.03575 | -77.44640 | 638 ft | 182 kts | 91° |
| 2026-04-25 22:27 | 25.03519 | -77.43204 | 1280 ft | 194 kts | 92° |
| 2026-04-25 22:27 | 25.03524 | -77.41692 | 1999 ft | 198 kts | 85° |
| 2026-04-25 22:27 | 25.03651 | -77.40212 | 2399 ft | 203 kts | 83° |
| 2026-04-25 22:27 | 25.03888 | -77.38579 | 2448 ft | 225 kts | 73° |
| 2026-04-25 22:28 | 25.04653 | -77.37091 | 2927 ft | 223 kts | 41° |
| 2026-04-25 22:28 | 25.06056 | -77.36384 | 3175 ft | 236 kts | 7° |
| 2026-04-25 22:28 | 25.07771 | -77.36663 | 3177 ft | 261 kts | 336° |
| 2026-04-25 22:28 | 25.09277 | -77.37874 | 3503 ft | 269 kts | 318° |
| 2026-04-25 22:29 | 25.10500 | -77.39391 | 4149 ft | 266 kts | 307° |
| 2026-04-25 22:29 | 25.11430 | -77.41129 | 4677 ft | 266 kts | 296° |
| 2026-04-25 22:29 | 25.12084 | -77.43032 | 5184 ft | 269 kts | 287° |
| 2026-04-25 22:30 | 25.12686 | -77.47137 | 6170 ft | 273 kts | 274° |
| 2026-04-25 22:30 | 25.12833 | -77.49205 | 6632 ft | 275 kts | 284° |
| 2026-04-25 22:30 | 25.13627 | -77.51099 | 7089 ft | 274 kts | 310° |
| 2026-04-25 22:30 | 25.14515 | -77.52094 | 7424 ft | 274 kts | 321° |
| 2026-04-25 22:31 | 25.16504 | -77.53821 | 8082 ft | 275 kts | 322° |
| 2026-04-25 22:31 | 25.18000 | -77.55157 | 8550 ft | 278 kts | 321° |
| 2026-04-25 22:31 | 25.19500 | -77.56502 | 9060 ft | 279 kts | 321° |
| 2026-04-25 22:31 | 25.21016 | -77.57851 | 9545 ft | 281 kts | 322° |
| 2026-04-25 22:32 | 25.22545 | -77.59208 | 10013 ft | 283 kts | 322° |
| 2026-04-25 22:32 | 25.24089 | -77.60576 | 10516 ft | 284 kts | 322° |
| 2026-04-25 22:32 | 25.25630 | -77.61935 | 10986 ft | 286 kts | 321° |
| 2026-04-25 22:32 | 25.27187 | -77.63307 | 11441 ft | 288 kts | 321° |
| 2026-04-25 22:33 | 25.28772 | -77.64706 | 11935 ft | 290 kts | 321° |
| 2026-04-25 22:33 | 25.30329 | -77.66084 | 12427 ft | 291 kts | 321° |
| 2026-04-25 22:33 | 25.31918 | -77.67495 | 12873 ft | 293 kts | 321° |
| 2026-04-25 22:33 | 25.33514 | -77.68909 | 13334 ft | 294 kts | 321° |
| 2026-04-25 22:34 | 25.35122 | -77.70333 | 13755 ft | 298 kts | 321° |
| 2026-04-25 22:34 | 25.36744 | -77.71766 | 14217 ft | 300 kts | 320° |
| 2026-04-25 22:34 | 25.38370 | -77.73202 | 14736 ft | 300 kts | 320° |
| 2026-04-25 22:34 | 25.40003 | -77.74650 | 15168 ft | 303 kts | 320° |
| 2026-04-25 22:35 | 25.41647 | -77.76112 | 15635 ft | 304 kts | 320° |
| 2026-04-25 22:35 | 25.43292 | -77.77585 | 16022 ft | 308 kts | 319° |
| 2026-04-25 22:35 | 25.44923 | -77.79140 | 16499 ft | 308 kts | 317° |
| 2026-04-25 22:35 | 25.46541 | -77.80703 | 16926 ft | 310 kts | 318° |
| 2026-04-25 22:36 | 25.48183 | -77.82279 | 17360 ft | 311 kts | 318° |
| 2026-04-25 22:36 | 25.49818 | -77.83850 | 17746 ft | 314 kts | 318° |
| 2026-04-25 22:36 | 25.51470 | -77.85440 | 18202 ft | 314 kts | 318° |
| 2026-04-25 22:36 | 25.53120 | -77.87020 | 18544 ft | 318 kts | 318° |
| 2026-04-25 22:37 | 25.54789 | -77.88622 | 18951 ft | 319 kts | 317° |
| 2026-04-25 22:37 | 25.56475 | -77.90241 | 19376 ft | 319 kts | 317° |
| 2026-04-25 22:37 | 25.58166 | -77.91862 | 19693 ft | 322 kts | 317° |
| 2026-04-25 22:37 | 25.59828 | -77.93456 | 20278 ft | 316 kts | 317° |
| 2026-04-25 22:38 | 25.61516 | -77.95080 | 20564 ft | 321 kts | 317° |
| 2026-04-25 22:38 | 25.63170 | -77.96670 | 21018 ft | 318 kts | 317° |
| 2026-04-25 22:38 | 25.64864 | -77.98303 | 21340 ft | 320 kts | 317° |
| 2026-04-25 22:38 | 25.66532 | -77.99915 | 21717 ft | 320 kts | 317° |
| 2026-04-25 22:39 | 25.68232 | -78.01550 | 21992 ft | 323 kts | 317° |
| 2026-04-25 22:39 | 25.69944 | -78.03200 | 22054 ft | 330 kts | 317° |
| 2026-04-25 22:39 | 25.71663 | -78.04864 | 22046 ft | 328 kts | 316° |
| 2026-04-25 22:39 | 25.73396 | -78.06541 | 22051 ft | 329 kts | 317° |
| 2026-04-25 22:40 | 25.75130 | -78.08215 | 22051 ft | 329 kts | 317° |
| 2026-04-25 22:40 | 25.76842 | -78.09869 | 22051 ft | 330 kts | 317° |
| 2026-04-25 22:40 | 25.78589 | -78.11556 | 22048 ft | 328 kts | 317° |
| 2026-04-25 22:40 | 25.80296 | -78.13199 | 22050 ft | 328 kts | 317° |
| 2026-04-25 22:41 | 25.82025 | -78.14871 | 22049 ft | 330 kts | 317° |
| 2026-04-25 22:41 | 25.83766 | -78.16551 | 22051 ft | 330 kts | 317° |
| 2026-04-25 22:41 | 25.85501 | -78.18230 | 22059 ft | 336 kts | 317° |
| 2026-04-25 22:41 | 25.87291 | -78.19965 | 22056 ft | 347 kts | 317° |
| 2026-04-25 22:42 | 25.89155 | -78.21773 | 22050 ft | 358 kts | 316° |
| 2026-04-25 22:42 | 25.91048 | -78.23605 | 22051 ft | 367 kts | 317° |
| 2026-04-25 22:42 | 25.92987 | -78.25485 | 22050 ft | 376 kts | 317° |
| 2026-04-25 22:42 | 25.94976 | -78.27415 | 22050 ft | 384 kts | 317° |
| 2026-04-25 22:43 | 25.97032 | -78.29401 | 22050 ft | 392 kts | 317° |
| 2026-04-25 22:43 | 25.99090 | -78.31393 | 22051 ft | 398 kts | 317° |
| 2026-04-25 22:43 | 26.01192 | -78.33434 | 22049 ft | 401 kts | 317° |
| 2026-04-25 22:43 | 26.03328 | -78.35506 | 22048 ft | 405 kts | 317° |
| 2026-04-25 22:44 | 26.05439 | -78.37560 | 22049 ft | 404 kts | 317° |
| 2026-04-25 22:44 | 26.07541 | -78.39602 | 22049 ft | 404 kts | 317° |
| 2026-04-25 22:44 | 26.09670 | -78.41668 | 22051 ft | 404 kts | 317° |
| 2026-04-25 22:44 | 26.11771 | -78.43710 | 22049 ft | 402 kts | 317° |
| 2026-04-25 22:45 | 26.13882 | -78.45773 | 22053 ft | 403 kts | 316° |
| 2026-04-25 22:45 | 26.15999 | -78.47839 | 22050 ft | 403 kts | 316° |
| 2026-04-25 22:45 | 26.18100 | -78.49881 | 22051 ft | 402 kts | 317° |
| 2026-04-25 22:45 | 26.20222 | -78.51952 | 22051 ft | 403 kts | 317° |
| 2026-04-25 22:46 | 26.22327 | -78.54011 | 22048 ft | 403 kts | 316° |
| 2026-04-25 22:46 | 26.24439 | -78.56074 | 22050 ft | 403 kts | 317° |
| 2026-04-25 22:46 | 26.26535 | -78.58122 | 22053 ft | 403 kts | 317° |
| 2026-04-25 22:46 | 26.28658 | -78.60194 | 22054 ft | 403 kts | 316° |
| 2026-04-25 22:47 | 26.30757 | -78.62236 | 22054 ft | 403 kts | 316° |
| 2026-04-25 22:47 | 26.32871 | -78.64304 | 22056 ft | 403 kts | 316° |
| 2026-04-25 22:47 | 26.35000 | -78.66389 | 22051 ft | 400 kts | 316° |
| 2026-04-25 22:47 | 26.37072 | -78.68417 | 22056 ft | 401 kts | 316° |
| 2026-04-25 22:48 | 26.39177 | -78.70481 | 22059 ft | 401 kts | 316° |
| 2026-04-25 22:48 | 26.41275 | -78.72546 | 22057 ft | 401 kts | 316° |
| 2026-04-25 22:48 | 26.43370 | -78.74610 | 22064 ft | 399 kts | 316° |
| 2026-04-25 22:48 | 26.45445 | -78.76640 | 22059 ft | 401 kts | 316° |
| 2026-04-25 22:49 | 26.47558 | -78.78707 | 22064 ft | 402 kts | 316° |
| 2026-04-25 22:49 | 26.49660 | -78.80772 | 22060 ft | 402 kts | 316° |
| 2026-04-25 22:49 | 26.51741 | -78.82822 | 22066 ft | 401 kts | 316° |
| 2026-04-25 22:49 | 26.53835 | -78.84881 | 22065 ft | 401 kts | 316° |
| 2026-04-25 22:50 | 26.55944 | -78.86950 | 22059 ft | 404 kts | 316° |
| 2026-04-25 22:50 | 26.58077 | -78.89047 | 22061 ft | 403 kts | 315° |
| 2026-04-25 22:50 | 26.60160 | -78.91097 | 22058 ft | 402 kts | 316° |
| 2026-04-25 22:50 | 26.62265 | -78.93169 | 22060 ft | 402 kts | 316° |
| 2026-04-25 22:51 | 26.64355 | -78.95230 | 22061 ft | 404 kts | 316° |
| 2026-04-25 22:51 | 26.66466 | -78.97317 | 22059 ft | 403 kts | 316° |
| 2026-04-25 22:51 | 26.68578 | -78.99399 | 22054 ft | 401 kts | 316° |
| 2026-04-25 22:51 | 26.70665 | -79.01454 | 22056 ft | 401 kts | 316° |
| 2026-04-25 22:52 | 26.72772 | -79.03535 | 22057 ft | 402 kts | 315° |
| 2026-04-25 22:52 | 26.74855 | -79.05595 | 22047 ft | 400 kts | 315° |
| 2026-04-25 22:52 | 26.76955 | -79.07670 | 22054 ft | 403 kts | 315° |
| 2026-04-25 22:52 | 26.79053 | -79.09740 | 22045 ft | 401 kts | 315° |
| 2026-04-25 22:53 | 26.81150 | -79.11825 | 22052 ft | 402 kts | 315° |
| 2026-04-25 22:53 | 26.83237 | -79.13890 | 22051 ft | 401 kts | 315° |
| 2026-04-25 22:53 | 26.85337 | -79.15962 | 22049 ft | 401 kts | 315° |
| 2026-04-25 22:53 | 26.87423 | -79.18042 | 22051 ft | 403 kts | 315° |
| 2026-04-25 22:54 | 26.89510 | -79.20113 | 22048 ft | 400 kts | 315° |
| 2026-04-25 22:54 | 26.91589 | -79.22176 | 22050 ft | 402 kts | 315° |
| 2026-04-25 22:54 | 26.93681 | -79.24255 | 22048 ft | 400 kts | 315° |
| 2026-04-25 22:54 | 26.95742 | -79.26305 | 22051 ft | 400 kts | 315° |
| 2026-04-25 22:55 | 26.97848 | -79.28394 | 22049 ft | 400 kts | 315° |
| 2026-04-25 22:55 | 26.99912 | -79.30446 | 22051 ft | 401 kts | 315° |
| 2026-04-25 22:55 | 27.02029 | -79.32555 | 22052 ft | 407 kts | 315° |
| 2026-04-25 22:55 | 27.04153 | -79.34664 | 22048 ft | 413 kts | 315° |
| 2026-04-25 22:56 | 27.06327 | -79.36821 | 22047 ft | 417 kts | 315° |
| 2026-04-25 22:56 | 27.08494 | -79.38980 | 22050 ft | 422 kts | 315° |
| 2026-04-25 22:56 | 27.10694 | -79.41180 | 22048 ft | 425 kts | 315° |
| 2026-04-25 22:56 | 27.12929 | -79.43409 | 22048 ft | 426 kts | 315° |
| 2026-04-25 22:57 | 27.15157 | -79.45630 | 22047 ft | 427 kts | 315° |
| 2026-04-25 22:57 | 27.17362 | -79.47833 | 22049 ft | 427 kts | 315° |
| 2026-04-25 22:57 | 27.19383 | -79.50266 | 22040 ft | 420 kts | 302° |
| 2026-04-25 22:57 | 27.20680 | -79.53149 | 22045 ft | 414 kts | 286° |
| 2026-04-25 22:58 | 27.21118 | -79.56333 | 22050 ft | 414 kts | 269° |
| 2026-04-25 22:58 | 27.20922 | -79.59515 | 22058 ft | 414 kts | 268° |
| 2026-04-25 22:58 | 27.21168 | -79.62749 | 22042 ft | 415 kts | 283° |
| 2026-04-25 22:58 | 27.22269 | -79.65752 | 22047 ft | 420 kts | 299° |
| 2026-04-25 22:59 | 27.24133 | -79.68266 | 22052 ft | 425 kts | 313° |
| 2026-04-25 22:59 | 27.26391 | -79.70462 | 22057 ft | 427 kts | 315° |
| 2026-04-25 22:59 | 27.28512 | -79.72752 | 22045 ft | 424 kts | 309° |
| 2026-04-25 22:59 | 27.30385 | -79.75309 | 22050 ft | 423 kts | 304° |
| 2026-04-25 23:00 | 27.32083 | -79.78012 | 22047 ft | 419 kts | 301° |
| 2026-04-25 23:00 | 27.33661 | -79.80769 | 22048 ft | 420 kts | 299° |
| 2026-04-25 23:00 | 27.35168 | -79.83550 | 22051 ft | 417 kts | 297° |
| 2026-04-25 23:00 | 27.36616 | -79.86375 | 22050 ft | 417 kts | 297° |
| 2026-04-25 23:01 | 27.38014 | -79.89220 | 22048 ft | 417 kts | 296° |
| 2026-04-25 23:01 | 27.39094 | -79.91467 | 22047 ft | 415 kts | 295° |
| 2026-04-25 23:01 | 27.40447 | -79.94326 | 22049 ft | 415 kts | 295° |
| 2026-04-25 23:01 | 27.41801 | -79.97231 | 22047 ft | 416 kts | 295° |
| 2026-04-25 23:02 | 27.43132 | -80.00117 | 22045 ft | 415 kts | 295° |
| 2026-04-25 23:02 | 27.44448 | -80.03000 | 22057 ft | 415 kts | 295° |
| 2026-04-25 23:02 | 27.45769 | -80.05911 | 22042 ft | 416 kts | 294° |
| 2026-04-25 23:02 | 27.47049 | -80.08739 | 21805 ft | 395 kts | 294° |
| 2026-04-25 23:03 | 27.48249 | -80.11399 | 21566 ft | 369 kts | 294° |
| 2026-04-25 23:03 | 27.49367 | -80.13892 | 21296 ft | 341 kts | 294° |
| 2026-04-25 23:03 | 27.50391 | -80.16174 | 21056 ft | 321 kts | 294° |
| 2026-04-25 23:03 | 27.51408 | -80.18467 | 20818 ft | 329 kts | 294° |
| 2026-04-25 23:04 | 27.52431 | -80.20777 | 20572 ft | 331 kts | 294° |
| 2026-04-25 23:04 | 27.53458 | -80.23082 | 20329 ft | 331 kts | 294° |
| 2026-04-25 23:04 | 27.54484 | -80.25383 | 20084 ft | 329 kts | 294° |
| 2026-04-25 23:04 | 27.55512 | -80.27697 | 19836 ft | 328 kts | 294° |
| 2026-04-25 23:05 | 27.56537 | -80.29997 | 19592 ft | 330 kts | 294° |
| 2026-04-25 23:05 | 27.57543 | -80.32265 | 18994 ft | 328 kts | 294° |
| 2026-04-25 23:05 | 27.58572 | -80.34602 | 17251 ft | 351 kts | 295° |
| 2026-04-25 23:05 | 27.59656 | -80.37075 | 15823 ft | 356 kts | 295° |
| 2026-04-25 23:06 | 27.60748 | -80.39549 | 14505 ft | 357 kts | 295° |
| 2026-04-25 23:06 | 27.61832 | -80.42000 | 13275 ft | 356 kts | 296° |
| 2026-04-25 23:06 | 27.62916 | -80.44449 | 12254 ft | 346 kts | 296° |
| 2026-04-25 23:06 | 27.63952 | -80.46791 | 11802 ft | 323 kts | 296° |
| 2026-04-25 23:07 | 27.64929 | -80.48988 | 11220 ft | 309 kts | 296° |
| 2026-04-25 23:07 | 27.65880 | -80.51128 | 10521 ft | 300 kts | 297° |
| 2026-04-25 23:07 | 27.66782 | -80.53168 | 10118 ft | 283 kts | 296° |
| 2026-04-25 23:07 | 27.67672 | -80.55176 | 10110 ft | 292 kts | 297° |
| 2026-04-25 23:08 | 27.68580 | -80.57224 | 10109 ft | 297 kts | 297° |
| 2026-04-25 23:08 | 27.69500 | -80.59309 | 10089 ft | 296 kts | 297° |
| 2026-04-25 23:08 | 27.70421 | -80.61399 | 10093 ft | 296 kts | 297° |
| 2026-04-25 23:08 | 27.71347 | -80.63491 | 10100 ft | 297 kts | 297° |
| 2026-04-25 23:09 | 27.72260 | -80.65563 | 10099 ft | 296 kts | 296° |
| 2026-04-25 23:09 | 27.73170 | -80.67639 | 10091 ft | 296 kts | 296° |
| 2026-04-25 23:09 | 27.74087 | -80.69721 | 10093 ft | 294 kts | 296° |
| 2026-04-25 23:09 | 27.75000 | -80.71794 | 10085 ft | 295 kts | 296° |
| 2026-04-25 23:10 | 27.76212 | -80.74545 | 10086 ft | 295 kts | 296° |
| 2026-04-25 23:10 | 27.76823 | -80.75933 | 10096 ft | 297 kts | 296° |
| 2026-04-25 23:10 | 27.77743 | -80.78010 | 10075 ft | 295 kts | 296° |
| 2026-04-25 23:10 | 27.78673 | -80.80089 | 10073 ft | 297 kts | 296° |
| 2026-04-25 23:11 | 27.79603 | -80.82174 | 10075 ft | 296 kts | 296° |
| 2026-04-25 23:11 | 27.80530 | -80.84253 | 10084 ft | 296 kts | 296° |
| 2026-04-25 23:11 | 27.81454 | -80.86319 | 10087 ft | 295 kts | 296° |
| 2026-04-25 23:11 | 27.82388 | -80.88415 | 10078 ft | 297 kts | 296° |
| 2026-04-25 23:12 | 27.83314 | -80.90498 | 10078 ft | 296 kts | 296° |
| 2026-04-25 23:12 | 27.84232 | -80.92560 | 10082 ft | 296 kts | 297° |
| 2026-04-25 23:12 | 27.85150 | -80.94620 | 10071 ft | 296 kts | 297° |
| 2026-04-25 23:12 | 27.86076 | -80.96697 | 10084 ft | 296 kts | 297° |
| 2026-04-25 23:13 | 27.87011 | -80.98787 | 10068 ft | 295 kts | 296° |
| 2026-04-25 23:13 | 27.87929 | -81.00845 | 10075 ft | 297 kts | 296° |
| 2026-04-25 23:13 | 27.88864 | -81.02945 | 10074 ft | 293 kts | 296° |
| 2026-04-25 23:13 | 27.89760 | -81.04964 | 10073 ft | 284 kts | 296° |
| 2026-04-25 23:14 | 27.90650 | -81.06966 | 10079 ft | 285 kts | 296° |
| 2026-04-25 23:14 | 27.91528 | -81.08951 | 10076 ft | 284 kts | 295° |
| 2026-04-25 23:14 | 27.92106 | -81.11056 | 10072 ft | 284 kts | 276° |
| 2026-04-25 23:14 | 27.92190 | -81.13310 | 10088 ft | 286 kts | 273° |
| 2026-04-25 23:15 | 27.92578 | -81.15471 | 10071 ft | 286 kts | 297° |
| 2026-04-25 23:15 | 27.93888 | -81.17154 | 10081 ft | 287 kts | 328° |
| 2026-04-25 23:15 | 27.95762 | -81.17873 | 10089 ft | 290 kts | 352° |
| 2026-04-25 23:15 | 27.97783 | -81.17839 | 10075 ft | 286 kts | 12° |
| 2026-04-25 23:16 | 27.99498 | -81.16886 | 10082 ft | 269 kts | 34° |
| 2026-04-25 23:16 | 28.01042 | -81.15829 | 10076 ft | 244 kts | 15° |
| 2026-04-25 23:16 | 28.02615 | -81.15500 | 10093 ft | 220 kts | 2° |
| 2026-04-25 23:16 | 28.04131 | -81.15334 | 10062 ft | 222 kts | 3° |
| 2026-04-25 23:17 | 28.05699 | -81.15160 | 9477 ft | 235 kts | 3° |
| 2026-04-25 23:17 | 28.07390 | -81.14995 | 8685 ft | 251 kts | 3° |
| 2026-04-25 23:17 | 28.09161 | -81.14822 | 8118 ft | 255 kts | 3° |
| 2026-04-25 23:17 | 28.10927 | -81.14651 | 8091 ft | 259 kts | 3° |
| 2026-04-25 23:18 | 28.12782 | -81.14479 | 8084 ft | 270 kts | 3° |
| 2026-04-25 23:18 | 28.14685 | -81.14294 | 8088 ft | 274 kts | 3° |
| 2026-04-25 23:18 | 28.16588 | -81.14105 | 8086 ft | 273 kts | 3° |
| 2026-04-25 23:18 | 28.18474 | -81.13917 | 8093 ft | 273 kts | 3° |
| 2026-04-25 23:19 | 28.20370 | -81.13737 | 8102 ft | 273 kts | 2° |
| 2026-04-25 23:19 | 28.22269 | -81.13837 | 7905 ft | 269 kts | 346° |
| 2026-04-25 23:19 | 28.24050 | -81.14356 | 7225 ft | 267 kts | 342° |
| 2026-04-25 23:19 | 28.25844 | -81.14913 | 6574 ft | 266 kts | 343° |
| 2026-04-25 23:20 | 28.27627 | -81.15460 | 5890 ft | 265 kts | 343° |
| 2026-04-25 23:20 | 28.29399 | -81.15990 | 5319 ft | 261 kts | 346° |
| 2026-04-25 23:20 | 28.31169 | -81.16382 | 4679 ft | 259 kts | 348° |
| 2026-04-25 23:20 | 28.32919 | -81.16743 | 4166 ft | 252 kts | 348° |
| 2026-04-25 23:21 | 28.34595 | -81.17085 | 4106 ft | 246 kts | 348° |
| 2026-04-25 23:21 | 28.36292 | -81.17432 | 4110 ft | 238 kts | 348° |
| 2026-04-25 23:21 | 28.37871 | -81.17748 | 4090 ft | 222 kts | 351° |
| 2026-04-25 23:21 | 28.39411 | -81.17928 | 4128 ft | 223 kts | 353° |
| 2026-04-25 23:22 | 28.40961 | -81.18074 | 4118 ft | 223 kts | 353° |
| 2026-04-25 23:22 | 28.42524 | -81.18225 | 4092 ft | 223 kts | 353° |
| 2026-04-25 23:22 | 28.44067 | -81.18375 | 4101 ft | 224 kts | 353° |
| 2026-04-25 23:23 | 28.47112 | -81.18657 | 4102 ft | 214 kts | 353° |
| 2026-04-25 23:23 | 28.48606 | -81.18790 | 4106 ft | 213 kts | 353° |
| 2026-04-25 23:23 | 28.50071 | -81.18926 | 4106 ft | 214 kts | 353° |
| 2026-04-25 23:23 | 28.51565 | -81.19074 | 4106 ft | 213 kts | 353° |
| 2026-04-25 23:24 | 28.53053 | -81.19218 | 4107 ft | 213 kts | 353° |
| 2026-04-25 23:24 | 28.54539 | -81.19364 | 4107 ft | 212 kts | 353° |
| 2026-04-25 23:24 | 28.56024 | -81.19508 | 4110 ft | 213 kts | 353° |
| 2026-04-25 23:24 | 28.57487 | -81.19656 | 4105 ft | 212 kts | 353° |
| 2026-04-25 23:25 | 28.58978 | -81.19804 | 4102 ft | 211 kts | 353° |
| 2026-04-25 23:25 | 28.60431 | -81.19946 | 4096 ft | 211 kts | 353° |
| 2026-04-25 23:25 | 28.61911 | -81.20091 | 4091 ft | 212 kts | 353° |
| 2026-04-25 23:25 | 28.63372 | -81.20237 | 4082 ft | 211 kts | 353° |
| 2026-04-25 23:26 | 28.64853 | -81.20380 | 4075 ft | 212 kts | 353° |
| 2026-04-25 23:26 | 28.66333 | -81.20531 | 4068 ft | 213 kts | 353° |
| 2026-04-25 23:26 | 28.67814 | -81.20677 | 4058 ft | 213 kts | 353° |
| 2026-04-25 23:26 | 28.69286 | -81.20828 | 4057 ft | 214 kts | 353° |
| 2026-04-25 23:27 | 28.70770 | -81.20978 | 4055 ft | 213 kts | 353° |
| 2026-04-25 23:27 | 28.72243 | -81.21253 | 3973 ft | 209 kts | 336° |
| 2026-04-25 23:27 | 28.73296 | -81.22293 | 3415 ft | 207 kts | 294° |
| 2026-04-25 23:27 | 28.73377 | -81.23857 | 3081 ft | 198 kts | 251° |
| 2026-04-25 23:28 | 28.72712 | -81.25256 | 3093 ft | 209 kts | 234° |
| 2026-04-25 23:28 | 28.71544 | -81.26188 | 3024 ft | 198 kts | 203° |
| 2026-04-25 23:28 | 28.70275 | -81.26738 | 3052 ft | 195 kts | 203° |
| 2026-04-25 23:28 | 28.68999 | -81.27300 | 3043 ft | 195 kts | 203° |
| 2026-04-25 23:29 | 28.67743 | -81.27895 | 3039 ft | 194 kts | 206° |
| 2026-04-25 23:29 | 28.66430 | -81.28250 | 3038 ft | 197 kts | 184° |
| 2026-04-25 23:29 | 28.65059 | -81.28317 | 3048 ft | 193 kts | 186° |
| 2026-04-25 23:29 | 28.63778 | -81.28410 | 3029 ft | 176 kts | 184° |
| 2026-04-25 23:30 | 28.62546 | -81.28426 | 3050 ft | 176 kts | 182° |
| 2026-04-25 23:30 | 28.61330 | -81.28423 | 3058 ft | 174 kts | 182° |
| 2026-04-25 23:30 | 28.60101 | -81.28413 | 3039 ft | 176 kts | 182° |
| 2026-04-25 23:30 | 28.58868 | -81.28402 | 2800 ft | 175 kts | 182° |
| 2026-04-25 23:31 | 28.57666 | -81.28389 | 2639 ft | 171 kts | 182° |
| 2026-04-25 23:31 | 28.56436 | -81.28378 | 2387 ft | 175 kts | 182° |
| 2026-04-25 23:31 | 28.55255 | -81.28365 | 2153 ft | 167 kts | 182° |
| 2026-04-25 23:31 | 28.54141 | -81.28354 | 1908 ft | 149 kts | 183° |
| 2026-04-25 23:32 | 28.53100 | -81.28345 | 1783 ft | 151 kts | 183° |
| 2026-04-25 23:32 | 28.52050 | -81.28334 | 1553 ft | 151 kts | 182° |
| 2026-04-25 23:32 | 28.50954 | -81.28323 | 1366 ft | 159 kts | 182° |
| 2026-04-25 23:32 | 28.49841 | -81.28312 | 1156 ft | 160 kts | 182° |
| 2026-04-25 23:33 | 28.48717 | -81.28301 | 939 ft | 159 kts | 182° |
| 2026-04-25 23:33 | 28.47603 | -81.28289 | 736 ft | 159 kts | 182° |
| 2026-04-25 23:33 | 28.46498 | -81.28278 | 537 ft | 159 kts | 181° |
| 2026-04-25 23:33 | 28.45385 | -81.28268 | 341 ft | 160 kts | 182° |
| 2026-04-25 23:34 | 28.44259 | -81.28260 | 117 ft | 162 kts | 181° |
| 2026-04-25 23:34 | 28.43169 | -81.28235 | 105 ft | 155 kts | 180° |
| 2026-04-25 23:34 | 28.42281 | -81.28239 | 104 ft | 86 kts | 181° |
| 2026-04-25 23:34 | 28.41940 | -81.28253 | 104 ft | 22 kts | 220° |
| 2026-04-25 23:35 | 28.41954 | -81.28356 | 104 ft | 12 kts | 347° |
| 2026-04-25 23:35 | 28.42031 | -81.28358 | 104 ft | 9 kts | 359° |
| 2026-04-25 23:35 | 28.42082 | -81.28359 | 104 ft | 5 kts | 359° |
| 2026-04-25 23:35 | 28.42124 | -81.28359 | 104 ft | 7 kts | 359° |
| 2026-04-25 23:36 | 28.42186 | -81.28361 | 104 ft | 10 kts | 359° |
| 2026-04-25 23:36 | 28.42288 | -81.28363 | 104 ft | 18 kts | 359° |
| 2026-04-25 23:36 | 28.42421 | -81.28361 | 104 ft | 17 kts | 359° |
| 2026-04-25 23:36 | 28.42502 | -81.28411 | 104 ft | 12 kts | 265° |
| 2026-04-25 23:37 | 28.42478 | -81.28498 | 104 ft | 10 kts | 251° |
| 2026-04-25 23:37 | 28.42454 | -81.28580 | 104 ft | 11 kts | 251° |
| 2026-04-25 23:37 | 28.42428 | -81.28659 | 104 ft | 9 kts | 250° |
| 2026-04-25 23:37 | 28.42409 | -81.28721 | 104 ft | 7 kts | 251° |